createdAt,value
2022-10-30T00:00:20.729Z,6.1
2022-10-30T00:01:29.074Z,6.1
2022-10-30T00:02:37.433Z,6.1
2022-10-30T00:03:45.927Z,6.3
2022-10-30T00:04:54.281Z,6.3
2022-10-30T00:06:02.652Z,6.3
2022-10-30T00:07:11.146Z,6.9
2022-10-30T00:08:19.481Z,6.9
2022-10-30T00:09:27.823Z,6.9
2022-10-30T00:10:36.373Z,6.6
2022-10-30T00:11:44.723Z,6.6
2022-10-30T00:12:53.060Z,6.6
2022-10-30T00:14:01.609Z,5.8
2022-10-30T00:15:09.959Z,5.8
2022-10-30T00:16:18.298Z,5.8
2022-10-30T00:17:26.833Z,6.1
2022-10-30T00:18:35.180Z,6.1
2022-10-30T00:19:43.512Z,6.1
2022-10-30T00:20:52.136Z,5.6
2022-10-30T00:23:00.820Z,5.6
2022-10-30T00:24:09.077Z,4.9
2022-10-30T00:25:17.397Z,4.9
2022-10-30T00:26:25.728Z,4.9
2022-10-30T00:27:34.256Z,5.3
2022-10-30T00:28:42.592Z,5.3
2022-10-30T00:29:50.914Z,5.3
2022-10-30T00:30:59.449Z,5.6
2022-10-30T00:32:07.778Z,5.6
2022-10-30T00:33:16.141Z,5.6
2022-10-30T00:34:24.657Z,6.3
2022-10-30T00:35:33.020Z,6.3
2022-10-30T00:36:41.319Z,6.3
2022-10-30T00:37:49.851Z,5.8
2022-10-30T00:38:58.211Z,5.8
2022-10-30T00:40:06.535Z,5.8
2022-10-30T00:41:15.099Z,5.7
2022-10-30T00:42:23.424Z,5.7
2022-10-30T00:43:31.764Z,5.7
2022-10-30T00:44:40.309Z,5.6
2022-10-30T00:45:48.637Z,5.6
2022-10-30T00:46:56.965Z,5.6
2022-10-30T00:48:05.501Z,5.3
2022-10-30T00:49:13.846Z,5.3
2022-10-30T00:50:22.233Z,5.3
2022-10-30T00:51:30.726Z,5.8
2022-10-30T00:52:39.055Z,5.8
2022-10-30T00:53:47.391Z,5.8
2022-10-30T00:54:55.951Z,5
2022-10-30T00:56:04.260Z,5
2022-10-30T00:57:12.606Z,5
2022-10-30T00:58:21.156Z,5
2022-10-30T00:59:29.493Z,5
2022-10-30T01:00:37.849Z,5
2022-10-30T01:01:46.535Z,5.1
2022-10-30T01:02:54.798Z,5.1
2022-10-30T01:04:03.035Z,5.1
2022-10-30T01:05:11.596Z,5.1
2022-10-30T01:06:19.912Z,5.1
2022-10-30T01:07:28.237Z,5.1
2022-10-30T01:08:36.791Z,4.3
2022-10-30T01:09:45.097Z,4.3
2022-10-30T01:10:53.475Z,4.3
2022-10-30T01:12:01.988Z,4.6
2022-10-30T01:13:10.319Z,4.6
2022-10-30T01:14:18.671Z,4.6
2022-10-30T01:15:27.216Z,4.2
2022-10-30T01:16:35.539Z,4.2
2022-10-30T01:17:43.866Z,4.2
2022-10-30T01:18:52.430Z,4.3
2022-10-30T01:21:09.098Z,4.3
2022-10-30T01:22:17.636Z,4.8
2022-10-30T01:23:25.975Z,4.8
2022-10-30T01:24:34.305Z,4.8
2022-10-30T01:25:42.850Z,5.3
2022-10-30T01:26:51.197Z,5.3
2022-10-30T01:27:59.507Z,5.3
2022-10-30T01:29:08.043Z,5
2022-10-30T01:30:16.372Z,5
2022-10-30T01:31:24.702Z,5
2022-10-30T01:32:33.259Z,5.1
2022-10-30T01:33:41.590Z,5.1
2022-10-30T01:34:49.918Z,5.1
2022-10-30T01:35:58.452Z,5.1
2022-10-30T01:37:06.787Z,5.1
2022-10-30T01:38:15.140Z,5.1
2022-10-30T01:39:23.696Z,4.5
2022-10-30T01:40:32.048Z,4.5
2022-10-30T01:41:40.386Z,4.5
2022-10-30T01:42:48.970Z,5
2022-10-30T01:43:57.281Z,5
2022-10-30T01:45:05.615Z,5
2022-10-30T01:46:14.149Z,5.1
2022-10-30T01:47:22.489Z,5.1
2022-10-30T01:48:30.835Z,5.1
2022-10-30T01:49:39.367Z,5.1
2022-10-30T01:50:47.705Z,5.1
2022-10-30T01:51:56.040Z,5.1
2022-10-30T01:53:04.602Z,5.3
2022-10-30T01:54:12.940Z,5.3
2022-10-30T01:55:21.270Z,5.3
2022-10-30T01:56:29.805Z,5.2
2022-10-30T01:57:38.151Z,5.2
2022-10-30T01:58:46.524Z,5.2
2022-10-30T01:59:55.034Z,5.3
2022-10-30T02:01:03.424Z,5.3
2022-10-30T02:02:11.809Z,5.3
2022-10-30T02:03:20.265Z,5.6
2022-10-30T02:04:28.612Z,5.6
2022-10-30T02:05:36.930Z,5.6
2022-10-30T02:06:45.488Z,6.2
2022-10-30T02:07:53.829Z,6.2
2022-10-30T02:09:02.164Z,6.2
2022-10-30T02:10:10.699Z,5.5
2022-10-30T02:11:19.022Z,5.5
2022-10-30T02:12:27.375Z,5.5
2022-10-30T02:13:35.901Z,5.2
2022-10-30T02:14:44.279Z,5.2
2022-10-30T02:15:52.578Z,5.2
2022-10-30T02:17:01.129Z,4.8
2022-10-30T02:18:09.472Z,4.8
2022-10-30T02:19:17.810Z,4.8
2022-10-30T02:20:26.348Z,5
2022-10-30T02:21:34.677Z,5
2022-10-30T02:22:43.077Z,5
2022-10-30T02:23:51.578Z,4.8
2022-10-30T02:24:59.913Z,4.8
2022-10-30T02:26:08.252Z,4.8
2022-10-30T02:27:16.804Z,4.9
2022-10-30T02:28:25.134Z,4.9
2022-10-30T02:29:33.455Z,4.9
2022-10-30T02:30:42.040Z,4.8
2022-10-30T02:31:50.333Z,4.8
2022-10-30T02:32:58.861Z,4.8
2022-10-30T02:34:07.213Z,5.2
2022-10-30T02:35:15.543Z,5.2
2022-10-30T02:36:23.877Z,5.2
2022-10-30T02:37:32.441Z,4.9
2022-10-30T02:38:40.766Z,4.9
2022-10-30T02:39:49.093Z,4.9
2022-10-30T02:40:57.637Z,4.9
2022-10-30T02:42:05.964Z,4.9
2022-10-30T02:43:14.304Z,4.9
2022-10-30T02:44:22.839Z,4.6
2022-10-30T02:45:31.167Z,4.6
2022-10-30T02:46:39.531Z,4.6
2022-10-30T02:47:48.084Z,4.7
2022-10-30T02:48:56.379Z,4.7
2022-10-30T02:50:04.701Z,4.7
2022-10-30T02:51:13.256Z,4.7
2022-10-30T02:52:21.611Z,4.7
2022-10-30T02:53:29.948Z,4.7
2022-10-30T02:54:38.483Z,5.1
2022-10-30T02:55:46.814Z,5.1
2022-10-30T02:56:55.141Z,5.1
2022-10-30T02:58:03.677Z,5.1
2022-10-30T02:59:12.011Z,5.1
2022-10-30T03:00:20.351Z,5.1
2022-10-30T03:01:28.987Z,5
2022-10-30T03:02:37.251Z,5
2022-10-30T03:03:45.557Z,5
2022-10-30T03:04:54.087Z,4.7
2022-10-30T03:06:02.420Z,4.7
2022-10-30T03:07:10.761Z,4.7
2022-10-30T03:08:19.300Z,4.8
2022-10-30T03:09:27.626Z,4.8
2022-10-30T03:10:35.975Z,4.8
2022-10-30T03:11:44.516Z,5.6
2022-10-30T03:12:52.865Z,5.6
2022-10-30T03:14:01.196Z,5.6
2022-10-30T03:15:09.736Z,5.3
2022-10-30T03:16:18.063Z,5.3
2022-10-30T03:17:26.448Z,5.3
2022-10-30T03:18:34.966Z,5.3
2022-10-30T03:19:43.278Z,5.3
2022-10-30T03:20:51.599Z,5.3
2022-10-30T03:22:00.152Z,5.7
2022-10-30T03:23:08.474Z,5.7
2022-10-30T03:24:16.801Z,5.7
2022-10-30T03:25:25.345Z,5
2022-10-30T03:26:33.680Z,5
2022-10-30T03:27:42.018Z,5
2022-10-30T03:28:50.548Z,5
2022-10-30T03:29:58.878Z,5
2022-10-30T03:31:07.210Z,5
2022-10-30T03:32:15.809Z,4.6
2022-10-30T03:33:24.099Z,4.6
2022-10-30T03:34:32.458Z,4.6
2022-10-30T03:35:40.973Z,5.1
2022-10-30T03:36:49.302Z,5.1
2022-10-30T03:37:57.632Z,5.1
2022-10-30T03:39:06.172Z,4.9
2022-10-30T03:40:14.489Z,4.9
2022-10-30T03:41:22.819Z,4.9
2022-10-30T03:42:31.354Z,5.7
2022-10-30T03:43:39.684Z,5.7
2022-10-30T03:44:48.023Z,5.7
2022-10-30T03:45:56.572Z,5.1
2022-10-30T03:47:04.969Z,5.1
2022-10-30T03:48:13.241Z,5.1
2022-10-30T03:49:21.778Z,5.1
2022-10-30T03:50:30.130Z,5.1
2022-10-30T03:51:38.437Z,5.1
2022-10-30T03:52:46.969Z,5
2022-10-30T03:53:55.295Z,5
2022-10-30T03:55:03.629Z,5
2022-10-30T03:56:12.159Z,5.3
2022-10-30T03:57:20.497Z,5.3
2022-10-30T03:58:28.847Z,5.3
2022-10-30T03:59:37.375Z,4.9
2022-10-30T04:00:45.713Z,4.9
2022-10-30T04:01:54.258Z,4.9
2022-10-30T04:03:02.832Z,5.4
2022-10-30T04:04:10.922Z,5.4
2022-10-30T04:05:19.251Z,5.4
2022-10-30T04:06:27.814Z,5.7
2022-10-30T04:07:36.125Z,5.7
2022-10-30T04:08:44.456Z,5.7
2022-10-30T04:09:52.983Z,5
2022-10-30T04:11:01.383Z,5
2022-10-30T04:12:09.648Z,5
2022-10-30T04:13:18.188Z,4.9
2022-10-30T04:14:26.520Z,4.9
2022-10-30T04:15:34.850Z,4.9
2022-10-30T04:16:43.406Z,5.1
2022-10-30T04:17:51.720Z,5.1
2022-10-30T04:19:00.060Z,5.1
2022-10-30T04:20:08.606Z,5
2022-10-30T04:21:16.933Z,5
2022-10-30T04:22:25.301Z,5
2022-10-30T04:23:33.838Z,5
2022-10-30T04:24:42.165Z,5
2022-10-30T04:25:50.494Z,5
2022-10-30T04:26:59.062Z,5.2
2022-10-30T04:28:07.400Z,5.2
2022-10-30T04:29:15.731Z,5.2
2022-10-30T04:30:24.254Z,5
2022-10-30T04:31:32.600Z,5
2022-10-30T04:32:40.949Z,5
2022-10-30T04:33:49.499Z,5
2022-10-30T04:34:57.828Z,5
2022-10-30T04:36:06.149Z,5
2022-10-30T04:37:14.699Z,5
2022-10-30T04:38:23.061Z,5
2022-10-30T04:39:31.372Z,5
2022-10-30T04:40:39.913Z,4.8
2022-10-30T04:41:48.241Z,4.8
2022-10-30T04:42:56.784Z,4.8
2022-10-30T04:44:05.116Z,4.8
2022-10-30T04:45:15.205Z,4.8
2022-10-30T04:46:21.808Z,4.8
2022-10-30T04:47:30.362Z,4.8
2022-10-30T04:48:38.668Z,4.8
2022-10-30T04:49:46.999Z,4.8
2022-10-30T04:50:55.535Z,5.6
2022-10-30T04:52:03.874Z,5.6
2022-10-30T04:53:12.207Z,5.6
2022-10-30T04:54:20.773Z,4.3
2022-10-30T04:55:29.064Z,4.3
2022-10-30T04:56:37.434Z,4.3
2022-10-30T04:57:45.965Z,4.8
2022-10-30T04:58:54.298Z,4.8
2022-10-30T05:00:02.625Z,4.8
2022-10-30T05:01:11.218Z,4.7
2022-10-30T05:02:19.720Z,4.7
2022-10-30T05:03:27.829Z,4.7
2022-10-30T05:04:36.361Z,4.9
2022-10-30T05:05:44.705Z,4.9
2022-10-30T05:06:53.071Z,4.9
2022-10-30T05:08:01.951Z,5
2022-10-30T05:09:09.949Z,5
2022-10-30T05:10:18.292Z,5
2022-10-30T05:11:26.810Z,4.1
2022-10-30T05:12:35.149Z,4.1
2022-10-30T05:13:43.488Z,4.1
2022-10-30T05:14:52.018Z,3.7
2022-10-30T05:16:00.362Z,3.7
2022-10-30T05:17:08.690Z,3.7
2022-10-30T05:18:17.242Z,4.1
2022-10-30T05:19:25.585Z,4.1
2022-10-30T05:20:33.930Z,4.1
2022-10-30T05:21:42.499Z,4.6
2022-10-30T05:22:50.834Z,4.6
2022-10-30T05:23:59.169Z,4.6
2022-10-30T05:25:07.722Z,4
2022-10-30T05:26:16.092Z,4
2022-10-30T05:27:24.412Z,4
2022-10-30T05:28:32.958Z,3.6
2022-10-30T05:29:41.280Z,3.6
2022-10-30T05:30:49.622Z,3.6
2022-10-30T05:31:58.178Z,3.9
2022-10-30T05:33:06.517Z,3.9
2022-10-30T05:34:14.849Z,3.9
2022-10-30T05:35:23.396Z,4.3
2022-10-30T05:36:31.764Z,4.3
2022-10-30T05:37:40.115Z,4.3
2022-10-30T05:38:48.671Z,4.3
2022-10-30T05:39:57.004Z,4.3
2022-10-30T05:41:05.341Z,4.3
2022-10-30T05:42:14.125Z,3.7
2022-10-30T05:43:22.211Z,3.7
2022-10-30T05:44:55.007Z,3.7
2022-10-30T05:45:39.086Z,4.5
2022-10-30T05:46:47.440Z,4.5
2022-10-30T05:47:55.857Z,4.5
2022-10-30T05:49:04.279Z,3.6
2022-10-30T05:50:12.664Z,3.6
2022-10-30T05:51:20.999Z,3.6
2022-10-30T05:52:29.546Z,4
2022-10-30T05:53:37.881Z,4
2022-10-30T05:54:46.227Z,4
2022-10-30T05:55:54.792Z,4.2
2022-10-30T05:57:03.138Z,4.2
2022-10-30T05:58:11.498Z,4.2
2022-10-30T05:59:20.010Z,4.1
2022-10-30T06:00:28.349Z,4.1
2022-10-30T06:01:36.794Z,4.1
2022-10-30T06:02:45.330Z,4.1
2022-10-30T06:03:53.581Z,4.1
2022-10-30T06:05:01.931Z,4.1
2022-10-30T06:06:10.475Z,3.9
2022-10-30T06:07:18.824Z,3.9
2022-10-30T06:08:27.165Z,3.9
2022-10-30T06:09:35.721Z,4.1
2022-10-30T06:10:44.088Z,4.1
2022-10-30T06:11:52.413Z,4.1
2022-10-30T06:13:01.167Z,3.9
2022-10-30T06:14:09.301Z,3.9
2022-10-30T06:15:17.621Z,3.9
2022-10-30T06:16:26.227Z,4
2022-10-30T06:17:34.502Z,4
2022-10-30T06:18:42.828Z,4
2022-10-30T06:19:51.402Z,4
2022-10-30T06:20:59.761Z,4
2022-10-30T06:22:08.087Z,4
2022-10-30T06:23:16.625Z,3.9
2022-10-30T06:24:24.984Z,3.9
2022-10-30T06:25:37.875Z,3.9
2022-10-30T06:26:41.918Z,4.2
2022-10-30T06:27:50.253Z,4.2
2022-10-30T06:28:58.590Z,4.2
2022-10-30T06:30:07.161Z,4.2
2022-10-30T06:31:15.527Z,4.2
2022-10-30T06:32:23.803Z,4.2
2022-10-30T06:33:32.331Z,3.6
2022-10-30T06:34:40.727Z,3.6
2022-10-30T06:35:49.040Z,3.6
2022-10-30T06:36:57.617Z,5.1
2022-10-30T06:38:05.923Z,5.1
2022-10-30T06:39:14.259Z,5.1
2022-10-30T06:40:22.794Z,3.8
2022-10-30T06:41:31.117Z,3.8
2022-10-30T06:42:39.470Z,3.8
2022-10-30T06:43:48.018Z,3.9
2022-10-30T06:44:56.363Z,3.9
2022-10-30T06:46:04.787Z,3.9
2022-10-30T06:47:13.280Z,3.6
2022-10-30T06:48:21.607Z,3.6
2022-10-30T06:49:29.973Z,3.6
2022-10-30T06:50:38.524Z,3.9
2022-10-30T06:51:46.887Z,3.9
2022-10-30T06:52:55.215Z,3.9
2022-10-30T06:54:03.780Z,4
2022-10-30T06:55:12.110Z,4
2022-10-30T06:56:20.422Z,4
2022-10-30T06:57:28.972Z,3.8
2022-10-30T06:58:37.300Z,3.8
2022-10-30T06:59:45.669Z,3.8
2022-10-30T07:00:54.217Z,4
2022-10-30T07:02:03.433Z,4
2022-10-30T07:03:10.850Z,4
2022-10-30T07:04:19.403Z,4.6
2022-10-30T07:05:27.768Z,4.6
2022-10-30T07:06:36.114Z,4.6
2022-10-30T07:07:44.695Z,4.3
2022-10-30T07:08:53.032Z,4.3
2022-10-30T07:10:01.376Z,4.3
2022-10-30T07:11:09.907Z,4.3
2022-10-30T07:12:18.238Z,4.3
2022-10-30T07:13:26.579Z,4.3
2022-10-30T07:14:35.110Z,4
2022-10-30T07:15:43.450Z,4
2022-10-30T07:16:51.812Z,4
2022-10-30T07:18:00.712Z,4.1
2022-10-30T07:19:08.974Z,4.1
2022-10-30T07:20:17.300Z,4.1
2022-10-30T07:21:25.871Z,3.8
2022-10-30T07:22:34.218Z,3.8
2022-10-30T07:23:42.558Z,3.8
2022-10-30T07:24:51.102Z,3.8
2022-10-30T07:26:03.474Z,3.8
2022-10-30T07:27:07.977Z,3.8
2022-10-30T07:28:16.562Z,4.4
2022-10-30T07:29:24.877Z,4.4
2022-10-30T07:30:33.213Z,4.4
2022-10-30T07:31:42.820Z,3.7
2022-10-30T07:32:50.150Z,3.7
2022-10-30T07:33:58.431Z,3.7
2022-10-30T07:35:06.933Z,4
2022-10-30T07:36:15.320Z,4
2022-10-30T07:37:23.650Z,4
2022-10-30T07:38:32.186Z,3.8
2022-10-30T07:39:40.524Z,3.8
2022-10-30T07:40:48.861Z,3.8
2022-10-30T07:41:57.400Z,4
2022-10-30T07:43:05.741Z,4
2022-10-30T07:44:14.076Z,4
2022-10-30T07:45:22.624Z,3.3
2022-10-30T07:46:30.949Z,3.3
2022-10-30T07:47:39.286Z,3.3
2022-10-30T07:48:47.823Z,4.2
2022-10-30T07:49:56.177Z,4.2
2022-10-30T07:51:04.490Z,4.2
2022-10-30T07:52:14.601Z,3.8
2022-10-30T07:53:21.391Z,3.8
2022-10-30T07:54:29.767Z,3.8
2022-10-30T07:55:38.302Z,4
2022-10-30T07:56:46.692Z,4
2022-10-30T07:57:55.071Z,4
2022-10-30T07:59:03.586Z,4.2
2022-10-30T08:00:11.929Z,4.2
2022-10-30T08:01:20.407Z,4.2
2022-10-30T08:02:29.050Z,3.8
2022-10-30T08:03:37.206Z,3.8
2022-10-30T08:04:45.590Z,3.8
2022-10-30T08:05:54.266Z,3.9
2022-10-30T08:07:02.531Z,3.9
2022-10-30T08:08:10.869Z,3.9
2022-10-30T08:09:19.409Z,4
2022-10-30T08:10:27.731Z,4
2022-10-30T08:11:36.085Z,4
2022-10-30T08:12:44.632Z,4.1
2022-10-30T08:13:52.964Z,4.1
2022-10-30T08:15:01.300Z,4.1
2022-10-30T08:16:09.878Z,3.9
2022-10-30T08:17:18.224Z,3.9
2022-10-30T08:18:26.555Z,3.9
2022-10-30T08:19:35.106Z,3.7
2022-10-30T08:20:43.473Z,3.7
2022-10-30T08:21:53.864Z,3.7
2022-10-30T08:23:00.911Z,3.4
2022-10-30T08:24:08.735Z,3.4
2022-10-30T08:25:17.119Z,3.4
2022-10-30T08:26:25.671Z,4
2022-10-30T08:27:34.036Z,4
2022-10-30T08:28:42.387Z,4
2022-10-30T08:29:50.953Z,3.6
2022-10-30T08:30:59.277Z,3.6
2022-10-30T08:32:07.640Z,3.6
2022-10-30T08:33:16.179Z,3.4
2022-10-30T08:34:24.505Z,3.4
2022-10-30T08:35:32.908Z,3.4
2022-10-30T08:36:42.642Z,3.7
2022-10-30T08:37:49.729Z,3.7
2022-10-30T08:38:58.030Z,3.7
2022-10-30T08:40:06.567Z,3.5
2022-10-30T08:41:14.932Z,3.5
2022-10-30T08:42:23.262Z,3.5
2022-10-30T08:43:31.844Z,3.3
2022-10-30T08:44:40.166Z,3.3
2022-10-30T08:45:48.545Z,3.3
2022-10-30T08:46:57.100Z,4
2022-10-30T08:48:05.430Z,4
2022-10-30T08:49:13.846Z,4
2022-10-30T08:51:30.732Z,4.3
2022-10-30T08:52:39.067Z,4.3
2022-10-30T08:53:47.643Z,5
2022-10-30T08:54:55.961Z,5
2022-10-30T08:56:04.304Z,5
2022-10-30T08:57:12.855Z,5.6
2022-10-30T08:58:21.272Z,5.6
2022-10-30T08:59:29.593Z,5.6
2022-10-30T09:00:38.168Z,4.5
2022-10-30T09:01:46.628Z,4.5
2022-10-30T09:02:54.957Z,4.5
2022-10-30T09:04:03.412Z,4.2
2022-10-30T09:05:11.749Z,4.2
2022-10-30T09:06:20.147Z,4.2
2022-10-30T09:07:28.671Z,5
2022-10-30T09:08:36.991Z,5
2022-10-30T09:09:45.359Z,5
2022-10-30T09:10:54.011Z,4
2022-10-30T09:12:02.373Z,4
2022-10-30T09:13:10.895Z,4
2022-10-30T09:14:19.447Z,4.1
2022-10-30T09:15:27.827Z,4.1
2022-10-30T09:16:36.155Z,4.1
2022-10-30T09:17:44.720Z,4.1
2022-10-30T09:18:53.053Z,4.1
2022-10-30T09:20:01.388Z,4.1
2022-10-30T09:21:09.947Z,4.2
2022-10-30T09:22:18.276Z,4.2
2022-10-30T09:23:26.610Z,4.2
2022-10-30T09:24:35.204Z,4.6
2022-10-30T09:25:43.561Z,4.6
2022-10-30T09:26:51.866Z,4.6
2022-10-30T09:28:00.409Z,4.9
2022-10-30T09:29:08.779Z,4.9
2022-10-30T09:30:17.106Z,4.9
2022-10-30T09:31:25.701Z,4
2022-10-30T09:32:34.022Z,4
2022-10-30T09:33:42.386Z,4
2022-10-30T09:34:50.934Z,4.1
2022-10-30T09:35:59.286Z,4.1
2022-10-30T09:37:07.618Z,4.1
2022-10-30T09:38:16.171Z,4.4
2022-10-30T09:39:24.506Z,4.4
2022-10-30T09:40:32.850Z,4.4
2022-10-30T09:41:41.438Z,4.5
2022-10-30T09:42:49.761Z,4.5
2022-10-30T09:43:58.105Z,4.5
2022-10-30T09:45:27.702Z,4.3
2022-10-30T09:46:14.986Z,4.3
2022-10-30T09:47:23.710Z,4.3
2022-10-30T09:48:31.903Z,4.4
2022-10-30T09:49:40.239Z,4.4
2022-10-30T09:50:48.616Z,4.4
2022-10-30T09:51:57.176Z,4.5
2022-10-30T09:53:05.508Z,4.5
2022-10-30T09:54:13.837Z,4.5
2022-10-30T09:55:22.383Z,4.4
2022-10-30T09:56:30.731Z,4.4
2022-10-30T09:57:39.108Z,4.4
2022-10-30T09:58:47.648Z,4.2
2022-10-30T09:59:55.969Z,4.2
2022-10-30T10:01:07.039Z,4.2
2022-10-30T10:02:13.041Z,4.3
2022-10-30T10:03:21.224Z,4.3
2022-10-30T10:04:29.576Z,4.3
2022-10-30T10:05:38.150Z,3.5
2022-10-30T10:06:46.471Z,3.5
2022-10-30T10:07:54.834Z,3.5
2022-10-30T10:09:03.380Z,4.1
2022-10-30T10:10:11.820Z,4.1
2022-10-30T10:11:20.091Z,4.1
2022-10-30T10:12:28.614Z,3.9
2022-10-30T10:13:37.003Z,3.9
2022-10-30T10:14:45.304Z,3.9
2022-10-30T10:15:53.860Z,4.2
2022-10-30T10:17:02.215Z,4.2
2022-10-30T10:18:10.554Z,4.2
2022-10-30T10:19:19.103Z,4.2
2022-10-30T10:20:27.453Z,4.2
2022-10-30T10:21:35.790Z,4.2
2022-10-30T10:22:44.327Z,3.9
2022-10-30T10:23:52.652Z,3.9
2022-10-30T10:25:00.992Z,3.9
2022-10-30T10:26:09.549Z,4.5
2022-10-30T10:27:17.910Z,4.5
2022-10-30T10:28:26.248Z,4.5
2022-10-30T10:29:34.826Z,3.8
2022-10-30T10:30:43.153Z,3.8
2022-10-30T10:31:51.490Z,3.8
2022-10-30T10:33:00.387Z,4.7
2022-10-30T10:34:08.394Z,4.7
2022-10-30T10:35:16.747Z,4.7
2022-10-30T10:36:25.296Z,3.6
2022-10-30T10:37:33.653Z,3.6
2022-10-30T10:38:41.979Z,3.6
2022-10-30T10:39:50.529Z,4.6
2022-10-30T10:40:58.875Z,4.6
2022-10-30T10:42:07.207Z,4.6
2022-10-30T10:43:15.828Z,4.2
2022-10-30T10:44:24.179Z,4.2
2022-10-30T10:45:32.559Z,4.2
2022-10-30T10:46:41.097Z,3.9
2022-10-30T10:47:49.449Z,3.9
2022-10-30T10:48:57.805Z,3.9
2022-10-30T10:50:06.357Z,4.1
2022-10-30T10:51:14.706Z,4.1
2022-10-30T10:52:23.056Z,4.1
2022-10-30T10:53:31.610Z,3.1
2022-10-30T10:54:39.960Z,3.1
2022-10-30T10:55:48.302Z,3.1
2022-10-30T10:56:56.846Z,3.5
2022-10-30T10:58:05.169Z,3.5
2022-10-30T10:59:13.506Z,3.5
2022-10-30T11:00:22.167Z,4
2022-10-30T11:01:30.556Z,4
2022-10-30T11:02:38.833Z,4
2022-10-30T11:03:47.316Z,4
2022-10-30T11:04:55.652Z,4
2022-10-30T11:06:03.987Z,4
2022-10-30T11:07:12.568Z,3.7
2022-10-30T11:08:20.894Z,3.7
2022-10-30T11:09:29.239Z,3.7
2022-10-30T11:10:37.807Z,3.7
2022-10-30T11:11:46.131Z,3.7
2022-10-30T11:12:54.477Z,3.7
2022-10-30T11:14:03.015Z,2.9
2022-10-30T11:15:11.386Z,2.9
2022-10-30T11:16:19.733Z,2.9
2022-10-30T11:17:28.289Z,3.4
2022-10-30T11:18:36.618Z,3.4
2022-10-30T11:19:46.471Z,3.4
2022-10-30T11:20:53.501Z,3
2022-10-30T11:22:01.850Z,3
2022-10-30T11:23:10.164Z,3
2022-10-30T11:24:18.733Z,2.9
2022-10-30T11:25:28.665Z,2.9
2022-10-30T11:26:35.395Z,2.9
2022-10-30T11:27:43.963Z,2.9
2022-10-30T11:28:52.292Z,2.9
2022-10-30T11:30:00.651Z,2.9
2022-10-30T11:31:09.211Z,3.2
2022-10-30T11:32:17.542Z,3.2
2022-10-30T11:33:25.913Z,3.2
2022-10-30T11:34:34.426Z,2.8
2022-10-30T11:35:42.764Z,2.8
2022-10-30T11:36:51.121Z,2.8
2022-10-30T11:37:59.676Z,3.2
2022-10-30T11:39:08.016Z,3.2
2022-10-30T11:40:16.345Z,3.2
2022-10-30T11:41:24.886Z,2.9
2022-10-30T11:42:33.217Z,2.9
2022-10-30T11:43:41.555Z,2.9
2022-10-30T11:44:50.103Z,3.2
2022-10-30T11:45:58.442Z,3.2
2022-10-30T11:47:06.791Z,3.2
2022-10-30T11:48:15.765Z,5.4
2022-10-30T11:49:23.710Z,5.4
2022-10-30T11:50:32.016Z,5.4
2022-10-30T11:51:40.637Z,2.9
2022-10-30T11:52:48.890Z,2.9
2022-10-30T11:53:57.223Z,2.9
2022-10-30T11:55:05.774Z,3.3
2022-10-30T11:56:14.106Z,3.3
2022-10-30T11:57:22.430Z,3.3
2022-10-30T11:58:30.972Z,3
2022-10-30T11:59:39.308Z,3
2022-10-30T12:00:47.637Z,3
2022-10-30T12:01:56.273Z,3.3
2022-10-30T12:03:04.517Z,3.3
2022-10-30T12:04:12.868Z,3.3
2022-10-30T12:05:21.425Z,2.9
2022-10-30T12:06:29.738Z,2.9
2022-10-30T12:07:38.107Z,2.9
2022-10-30T12:08:46.643Z,2.7
2022-10-30T12:09:54.985Z,2.7
2022-10-30T12:11:03.318Z,2.7
2022-10-30T12:12:11.850Z,3
2022-10-30T12:13:20.181Z,3
2022-10-30T12:14:28.566Z,3
2022-10-30T12:15:37.121Z,3.3
2022-10-30T12:16:45.462Z,3.3
2022-10-30T12:17:53.787Z,3.3
2022-10-30T12:19:02.347Z,3.1
2022-10-30T12:20:10.668Z,3.1
2022-10-30T12:21:19.036Z,3.1
2022-10-30T12:22:27.546Z,3.1
2022-10-30T12:23:35.883Z,3.1
2022-10-30T12:24:44.217Z,3.1
2022-10-30T12:25:52.752Z,3.1
2022-10-30T12:27:01.081Z,3.1
2022-10-30T12:28:09.579Z,3.1
2022-10-30T12:29:18.148Z,3.2
2022-10-30T12:30:26.503Z,3.2
2022-10-30T12:31:34.820Z,3.2
2022-10-30T12:32:43.387Z,2.6
2022-10-30T12:33:51.721Z,2.6
2022-10-30T12:35:00.057Z,2.6
2022-10-30T12:36:08.614Z,2.8
2022-10-30T12:37:17.011Z,2.8
2022-10-30T12:38:25.307Z,2.8
2022-10-30T12:39:33.833Z,3.4
2022-10-30T12:40:42.180Z,3.4
2022-10-30T12:41:50.522Z,3.4
2022-10-30T12:42:59.086Z,3.3
2022-10-30T12:44:07.412Z,3.3
2022-10-30T12:45:15.758Z,3.3
2022-10-30T12:46:24.306Z,2.9
2022-10-30T12:47:32.674Z,2.9
2022-10-30T12:48:41.007Z,2.9
2022-10-30T12:49:49.646Z,3
2022-10-30T12:50:57.907Z,3
2022-10-30T12:52:06.242Z,3
2022-10-30T12:53:14.849Z,2.7
2022-10-30T12:54:23.162Z,2.7
2022-10-30T12:55:31.488Z,2.7
2022-10-30T12:56:40.051Z,2.7
2022-10-30T12:57:48.400Z,2.7
2022-10-30T12:58:56.874Z,2.7
2022-10-30T13:00:07.390Z,3
2022-10-30T13:01:15.869Z,3
2022-10-30T13:02:24.238Z,3
2022-10-30T13:03:32.660Z,2.8
2022-10-30T13:04:40.994Z,2.8
2022-10-30T13:06:59.515Z,2.9
2022-10-30T13:08:07.873Z,2.9
2022-10-30T13:09:21.952Z,2.9
2022-10-30T13:10:34.044Z,2.7
2022-10-30T13:11:42.409Z,2.7
2022-10-30T13:12:50.741Z,2.7
2022-10-30T13:13:59.292Z,2.7
2022-10-30T13:15:07.633Z,2.7
2022-10-30T13:16:15.965Z,2.7
2022-10-30T13:17:24.522Z,2.9
2022-10-30T13:18:32.853Z,2.9
2022-10-30T13:19:41.191Z,2.9
2022-10-30T13:20:49.740Z,2.9
2022-10-30T13:21:58.083Z,2.9
2022-10-30T13:23:06.434Z,2.9
2022-10-30T13:24:15.011Z,2.3
2022-10-30T13:25:23.361Z,2.3
2022-10-30T13:26:31.683Z,2.3
2022-10-30T13:27:40.207Z,2.5
2022-10-30T13:28:48.831Z,2.5
2022-10-30T13:29:57.164Z,2.5
2022-10-30T13:31:05.739Z,2.4
2022-10-30T13:32:14.156Z,2.4
2022-10-30T13:33:22.513Z,2.4
2022-10-30T13:34:31.077Z,2.7
2022-10-30T13:35:39.414Z,2.7
2022-10-30T13:36:47.759Z,2.7
2022-10-30T13:37:56.547Z,3.1
2022-10-30T13:39:04.660Z,3.1
2022-10-30T13:40:12.985Z,3.1
2022-10-30T13:41:21.559Z,2.7
2022-10-30T13:42:29.860Z,2.7
2022-10-30T13:43:40.099Z,2.7
2022-10-30T13:44:46.756Z,2.9
2022-10-30T13:45:55.093Z,2.9
2022-10-30T13:47:03.423Z,2.9
2022-10-30T13:48:11.975Z,3.1
2022-10-30T13:49:20.316Z,3.1
2022-10-30T13:50:28.652Z,3.1
2022-10-30T13:51:37.202Z,3.1
2022-10-30T13:52:45.570Z,3.1
2022-10-30T13:53:53.896Z,3.1
2022-10-30T13:55:02.459Z,2.8
2022-10-30T13:56:10.775Z,2.8
2022-10-30T13:57:19.146Z,2.8
2022-10-30T13:58:27.663Z,2.7
2022-10-30T13:59:36.020Z,2.7
2022-10-30T14:00:44.397Z,2.7
2022-10-30T14:01:55.330Z,2.4
2022-10-30T14:03:01.844Z,2.4
2022-10-30T14:04:09.579Z,2.4
2022-10-30T14:05:18.113Z,2.6
2022-10-30T14:06:26.444Z,2.6
2022-10-30T14:07:34.797Z,2.6
2022-10-30T14:08:43.354Z,2.5
2022-10-30T14:09:51.699Z,2.5
2022-10-30T14:11:00.562Z,2.5
2022-10-30T14:12:08.574Z,2.7
2022-10-30T14:13:16.967Z,2.7
2022-10-30T14:14:25.274Z,2.7
2022-10-30T14:15:33.804Z,3
2022-10-30T14:16:42.137Z,3
2022-10-30T14:17:50.475Z,3
2022-10-30T14:18:59.029Z,3.5
2022-10-30T14:20:13.509Z,3.5
2022-10-30T14:21:15.710Z,3.5
2022-10-30T14:22:24.281Z,2.9
2022-10-30T14:23:32.618Z,2.9
2022-10-30T14:24:40.940Z,2.9
2022-10-30T14:25:49.498Z,2.5
2022-10-30T14:26:57.837Z,2.5
2022-10-30T14:28:06.198Z,2.5
2022-10-30T14:29:14.769Z,2.7
2022-10-30T15:02:42.552Z,0
2022-10-30T15:03:50.832Z,0
2022-10-30T15:04:59.178Z,0
2022-10-30T15:06:07.802Z,2.8
2022-10-30T15:07:16.086Z,2.8
2022-10-30T15:08:24.419Z,2.8
2022-10-30T15:09:32.975Z,3.2
2022-10-30T15:10:41.305Z,3.2
2022-10-30T15:11:49.690Z,3.2
2022-10-30T15:12:59.710Z,3.4
2022-10-30T15:14:09.626Z,3.4
2022-10-30T15:15:14.972Z,3.4
2022-10-30T15:16:23.498Z,3.3
2022-10-30T15:17:31.836Z,3.3
2022-10-30T15:18:40.245Z,3.3
2022-10-30T15:19:48.777Z,3.3
2022-10-30T15:20:57.128Z,3.3
2022-10-30T15:22:05.491Z,3.3
2022-10-30T15:23:14.052Z,3.7
2022-10-30T15:24:22.401Z,3.7
2022-10-30T15:25:30.751Z,3.7
2022-10-30T15:26:39.315Z,4.9
2022-10-30T15:27:47.687Z,4.9
2022-10-30T15:28:56.019Z,4.9
2022-10-30T15:30:04.582Z,3.2
2022-10-30T15:31:12.943Z,3.2
2022-10-30T15:32:21.303Z,3.2
2022-10-30T15:33:29.844Z,4.2
2022-10-30T15:34:38.228Z,4.2
2022-10-30T15:35:46.532Z,4.2
2022-10-30T15:36:55.085Z,3.8
2022-10-30T15:38:03.494Z,3.8
2022-10-30T15:39:11.840Z,3.8
2022-10-30T15:40:20.395Z,6
2022-10-30T15:41:28.731Z,6
2022-10-30T15:42:37.070Z,6
2022-10-30T15:43:45.627Z,4.5
2022-10-30T15:44:53.967Z,4.5
2022-10-30T15:46:02.296Z,4.5
2022-10-30T15:47:10.862Z,3.3
2022-10-30T15:48:19.201Z,3.3
2022-10-30T15:49:27.553Z,3.3
2022-10-30T15:50:36.119Z,12.3
2022-10-30T15:51:44.447Z,12.3
2022-10-30T15:52:52.801Z,12.3
2022-10-30T15:54:01.342Z,7.7
2022-10-30T15:55:09.701Z,7.7
2022-10-30T15:56:19.324Z,7.7
2022-10-30T15:57:49.790Z,6.4
2022-10-30T15:58:34.988Z,6.4
2022-10-30T15:59:43.327Z,6.4
2022-10-30T16:00:51.943Z,3.7
2022-10-30T16:02:00.262Z,3.7
2022-10-30T16:03:08.590Z,3.7
2022-10-30T16:04:17.177Z,4.1
2022-10-30T16:05:25.516Z,4.1
2022-10-30T16:06:33.928Z,4.1
2022-10-30T16:07:42.455Z,3.9
2022-10-30T16:08:50.804Z,3.9
2022-10-30T16:09:59.147Z,3.9
2022-10-30T16:11:07.689Z,6.4
2022-10-30T16:12:16.063Z,6.4
2022-10-30T16:13:24.407Z,6.4
2022-10-30T16:14:32.965Z,4.3
2022-10-30T16:15:41.316Z,4.3
2022-10-30T16:16:49.698Z,4.3
2022-10-30T16:17:58.582Z,3.2
2022-10-30T16:19:06.593Z,3.2
2022-10-30T16:20:14.949Z,3.2
2022-10-30T16:21:23.512Z,3
2022-10-30T16:22:31.897Z,3
2022-10-30T16:23:40.219Z,3
2022-10-30T16:24:48.795Z,3
2022-10-30T16:25:57.139Z,3
2022-10-30T16:27:05.513Z,3
2022-10-30T16:28:14.076Z,3.3
2022-10-30T16:29:22.427Z,3.3